createdAt,value
2024-02-24T00:00:10.459Z,89.33
2024-02-24T00:02:42.926Z,89.00
2024-02-24T00:05:12.631Z,89.06
2024-02-24T00:07:41.178Z,89.03
2024-02-24T00:10:13.700Z,88.24
2024-02-24T00:12:42.302Z,88.94
2024-02-24T00:15:13.179Z,88.72
2024-02-24T00:17:41.950Z,89.14
2024-02-24T00:20:15.351Z,89.52
2024-02-24T00:22:44.249Z,89.34
2024-02-24T00:25:12.847Z,90.09
2024-02-24T00:27:41.983Z,90.28
2024-02-24T00:30:14.479Z,90.18
2024-02-24T00:32:43.114Z,90.14
2024-02-24T00:35:12.946Z,89.05
2024-02-24T00:37:41.847Z,89.08
2024-02-24T00:40:12.498Z,89.75
2024-02-24T00:42:40.961Z,88.70
2024-02-24T00:45:11.817Z,88.79
2024-02-24T00:47:40.389Z,88.47
2024-02-24T00:50:11.454Z,88.32
2024-02-24T00:52:40.195Z,88.46
2024-02-24T00:55:09.597Z,88.53
2024-02-24T00:57:38.100Z,87.59
2024-02-24T01:00:08.563Z,87.83
2024-02-24T01:02:38.619Z,87.84
2024-02-24T01:05:08.546Z,87.35
2024-02-24T01:07:37.615Z,87.83
2024-02-24T01:10:08.716Z,87.57
2024-02-24T01:12:37.216Z,87.65
2024-02-24T01:15:07.172Z,87.75
2024-02-24T01:17:37.310Z,86.94
2024-02-24T01:20:06.821Z,88.00
2024-02-24T01:22:35.304Z,87.48
2024-02-24T01:25:04.000Z,88.18
2024-02-24T01:27:32.660Z,87.45
2024-02-24T01:30:01.475Z,87.74
2024-02-24T01:32:30.429Z,87.56
2024-02-24T01:35:00.603Z,87.79
2024-02-24T01:37:29.065Z,87.56
2024-02-24T01:39:57.634Z,87.90
2024-02-24T01:42:27.218Z,88.25
2024-02-24T01:44:56.412Z,88.10
2024-02-24T01:47:25.508Z,88.50
2024-02-24T01:49:56.703Z,88.42
2024-02-24T01:52:27.713Z,88.55
2024-02-24T01:55:00.498Z,88.22
2024-02-24T01:57:34.311Z,89.03
2024-02-24T02:00:04.563Z,88.25
2024-02-24T02:02:35.531Z,87.97
2024-02-24T02:05:04.216Z,88.58
2024-02-24T02:07:34.473Z,88.88
2024-02-24T02:10:04.398Z,89.13
2024-02-24T02:12:37.195Z,88.68
2024-02-24T02:15:08.880Z,89.40
2024-02-24T02:17:39.077Z,89.99
2024-02-24T02:20:10.002Z,89.93
2024-02-24T02:22:40.051Z,89.97
2024-02-24T02:25:09.676Z,89.58
2024-02-24T02:27:38.222Z,89.35
2024-02-24T02:30:09.042Z,89.81
2024-02-24T02:32:37.793Z,90.02
2024-02-24T02:35:07.828Z,89.34
2024-02-24T02:37:36.391Z,90.73
2024-02-24T02:40:07.928Z,90.54
2024-02-24T02:42:36.980Z,90.63
2024-02-24T02:45:07.119Z,90.42
2024-02-24T02:47:38.402Z,90.04
2024-02-24T02:50:08.517Z,89.59
2024-02-24T02:52:37.622Z,89.59
2024-02-24T02:55:08.226Z,90.53
2024-02-24T02:57:37.999Z,90.30
2024-02-24T03:00:08.439Z,89.25
2024-02-24T03:02:36.989Z,89.01
2024-02-24T03:05:06.011Z,89.51
2024-02-24T03:07:35.673Z,90.46
2024-02-24T03:10:07.185Z,89.71
2024-02-24T03:12:36.033Z,90.12
2024-02-24T03:15:05.810Z,89.58
2024-02-24T03:17:34.548Z,89.20
2024-02-24T03:20:05.085Z,89.05
2024-02-24T03:22:34.985Z,88.25
2024-02-24T03:25:03.731Z,88.23
2024-02-24T03:27:33.710Z,88.06
2024-02-24T03:30:02.769Z,87.85
2024-02-24T03:32:31.632Z,87.65
2024-02-24T03:35:00.827Z,87.75
2024-02-24T03:37:29.370Z,88.10
2024-02-24T03:39:56.803Z,88.43
2024-02-24T03:42:25.654Z,87.75
2024-02-24T03:44:57.086Z,87.86
2024-02-24T03:47:25.913Z,88.34
2024-02-24T03:49:54.565Z,87.36
2024-02-24T03:52:23.002Z,88.01
2024-02-24T03:54:53.901Z,88.69
2024-02-24T03:57:22.310Z,89.26
2024-02-24T03:59:50.974Z,89.09
2024-02-24T04:02:20.900Z,89.42
2024-02-24T04:04:50.040Z,90.53
2024-02-24T04:07:20.442Z,90.74
2024-02-24T04:09:48.948Z,91.08
2024-02-24T04:12:17.890Z,91.77
2024-02-24T04:14:46.928Z,92.56
2024-02-24T04:17:15.433Z,92.29
2024-02-24T04:19:45.554Z,91.97
2024-02-24T04:22:14.466Z,92.49
2024-02-24T04:24:43.184Z,91.63
2024-02-24T04:27:11.638Z,91.24
2024-02-24T04:29:40.245Z,92.12
2024-02-24T04:32:08.926Z,91.11
2024-02-24T04:34:39.643Z,90.84
2024-02-24T04:37:09.783Z,90.88
2024-02-24T04:39:38.445Z,92.04
2024-02-24T04:42:09.285Z,91.29
2024-02-24T04:44:37.794Z,90.65
2024-02-24T04:47:07.041Z,89.56
2024-02-24T04:49:35.626Z,89.85
2024-02-24T04:52:05.838Z,89.79
2024-02-24T04:54:35.989Z,89.31
2024-02-24T04:57:05.414Z,89.33
2024-02-24T04:59:33.976Z,90.30
2024-02-24T05:02:03.225Z,90.52
2024-02-24T05:04:31.846Z,90.31
2024-02-24T05:07:03.225Z,90.15
2024-02-24T05:09:32.100Z,90.27
2024-02-24T05:12:02.143Z,89.53
2024-02-24T05:14:30.917Z,89.33
2024-02-24T05:16:59.485Z,89.05
2024-02-24T05:19:28.374Z,89.15
2024-02-24T05:21:58.040Z,89.03
2024-02-24T05:24:26.626Z,89.18
2024-02-24T05:26:55.259Z,88.65
2024-02-24T05:29:25.248Z,89.17
2024-02-24T05:31:53.870Z,89.32
2024-02-24T05:34:22.764Z,89.02
2024-02-24T05:36:51.660Z,89.60
2024-02-24T05:39:20.293Z,89.38
2024-02-24T05:41:49.474Z,89.51
2024-02-24T05:44:18.542Z,88.92
2024-02-24T05:46:48.658Z,89.12
2024-02-24T05:49:17.721Z,88.86
2024-02-24T05:51:47.074Z,89.15
2024-02-24T05:54:15.646Z,88.78
2024-02-24T05:56:44.157Z,88.62
2024-02-24T05:59:12.873Z,88.97
2024-02-24T06:01:41.280Z,89.16
2024-02-24T06:04:11.292Z,88.76
2024-02-24T06:06:40.194Z,88.41
2024-02-24T06:09:08.902Z,88.80
2024-02-24T06:11:37.471Z,88.28
2024-02-24T06:14:06.143Z,88.38
2024-02-24T06:16:34.852Z,87.92
2024-02-24T06:19:03.563Z,87.95
2024-02-24T06:21:34.079Z,88.09
2024-02-24T06:24:02.693Z,87.67
2024-02-24T06:26:31.983Z,87.98
2024-02-24T06:29:00.708Z,88.23
2024-02-24T06:31:29.131Z,88.84
2024-02-24T06:33:57.800Z,88.15
2024-02-24T06:36:26.371Z,88.05
2024-02-24T06:38:56.519Z,88.79
2024-02-24T06:41:26.050Z,88.41
2024-02-24T06:43:54.739Z,88.88
2024-02-24T06:46:26.446Z,88.52
2024-02-24T06:48:55.569Z,88.62
2024-02-24T06:51:24.294Z,88.73
2024-02-24T06:53:55.852Z,89.13
2024-02-24T06:56:25.940Z,88.97
2024-02-24T06:58:54.597Z,89.12
2024-02-24T07:01:24.450Z,89.05
2024-02-24T07:03:53.240Z,88.90
2024-02-24T07:06:21.777Z,88.77
2024-02-24T07:08:52.882Z,88.89
2024-02-24T07:11:22.000Z,89.19
2024-02-24T07:13:52.250Z,89.21
2024-02-24T07:16:20.812Z,88.95
2024-02-24T07:18:49.383Z,89.32
2024-02-24T07:21:18.644Z,90.49
2024-02-24T07:23:48.410Z,90.99
2024-02-24T07:26:17.163Z,91.26
2024-02-24T07:28:45.996Z,91.84
2024-02-24T07:31:16.540Z,92.05
2024-02-24T07:33:45.265Z,91.54
2024-02-24T07:36:14.228Z,91.12
2024-02-24T07:38:43.037Z,90.98
2024-02-24T07:41:11.609Z,90.91
2024-02-24T07:43:40.129Z,90.69
2024-02-24T07:46:08.887Z,90.46
2024-02-24T07:48:39.776Z,90.24
2024-02-24T07:51:08.597Z,90.12
2024-02-24T07:53:37.753Z,90.36
2024-02-24T07:56:07.436Z,90.74
2024-02-24T07:58:36.246Z,90.33
2024-02-24T08:01:05.053Z,90.02
2024-02-24T08:03:34.656Z,89.95
2024-02-24T08:06:07.847Z,90.03
2024-02-24T08:08:38.129Z,90.41
2024-02-24T08:11:07.807Z,90.09
2024-02-24T08:13:42.962Z,89.72
2024-02-24T08:16:11.934Z,89.31
2024-02-24T08:18:41.556Z,88.83
2024-02-24T08:21:11.788Z,88.60
2024-02-24T08:23:40.523Z,89.05
2024-02-24T08:26:09.286Z,89.25
2024-02-24T08:28:38.027Z,89.83
2024-02-24T08:31:07.472Z,90.07
2024-02-24T08:33:36.211Z,90.91
2024-02-24T08:36:05.215Z,90.81
2024-02-24T08:38:37.579Z,90.37
2024-02-24T08:41:07.852Z,90.19
2024-02-24T08:43:36.500Z,89.98
2024-02-24T08:46:05.293Z,88.91
2024-02-24T08:48:33.813Z,88.79
2024-02-24T08:51:02.513Z,88.60
2024-02-24T08:53:31.802Z,88.86
2024-02-24T08:56:03.930Z,88.87
2024-02-24T08:58:32.856Z,88.04
2024-02-24T09:01:01.925Z,87.84
2024-02-24T09:03:30.472Z,88.00
2024-02-24T09:05:59.766Z,87.73
2024-02-24T09:08:30.425Z,87.78
2024-02-24T09:10:59.119Z,87.63
2024-02-24T09:13:29.155Z,87.51
2024-02-24T09:15:57.668Z,87.68
2024-02-24T09:18:27.938Z,87.58
2024-02-24T09:20:58.198Z,87.67
2024-02-24T09:23:26.887Z,87.92
2024-02-24T09:25:55.508Z,87.77
2024-02-24T09:28:24.094Z,87.89
2024-02-24T09:30:54.250Z,87.81
2024-02-24T09:33:23.166Z,87.48
2024-02-24T09:35:51.936Z,87.47
2024-02-24T09:38:20.541Z,87.27
2024-02-24T09:40:51.638Z,87.06
2024-02-24T09:43:20.916Z,87.44
2024-02-24T09:45:50.498Z,87.78
2024-02-24T09:48:21.383Z,88.16
2024-02-24T09:50:50.129Z,87.73
2024-02-24T09:53:18.999Z,88.05
2024-02-24T09:55:50.206Z,87.98
2024-02-24T09:58:19.796Z,88.18
2024-02-24T10:00:52.105Z,87.50
2024-02-24T10:03:23.412Z,87.30
2024-02-24T10:05:52.346Z,87.55
2024-02-24T10:08:21.048Z,86.91
2024-02-24T10:10:49.570Z,86.75
2024-02-24T10:13:20.658Z,86.63
2024-02-24T10:15:49.665Z,86.21
2024-02-24T10:18:23.205Z,85.65
2024-02-24T10:20:56.234Z,86.20
2024-02-24T10:23:24.976Z,86.29
2024-02-24T10:25:54.915Z,86.35
2024-02-24T10:28:23.973Z,85.54
2024-02-24T10:30:52.554Z,84.62
2024-02-24T10:33:24.248Z,83.97
2024-02-24T10:35:56.034Z,83.55
2024-02-24T10:38:34.555Z,83.74
2024-02-24T10:41:09.363Z,82.86
2024-02-24T10:43:38.720Z,82.64
2024-02-24T10:46:07.430Z,81.54
2024-02-24T10:48:37.527Z,81.57
2024-02-24T10:51:06.606Z,81.12
2024-02-24T10:53:36.750Z,81.05
2024-02-24T10:56:06.229Z,80.80
2024-02-24T10:58:36.415Z,81.16
2024-02-24T11:01:06.725Z,79.63
2024-02-24T11:03:37.053Z,80.57
2024-02-24T11:06:06.902Z,80.20
2024-02-24T11:08:42.480Z,80.65
2024-02-24T11:11:13.220Z,80.09
2024-02-24T11:13:59.478Z,79.50
2024-02-24T11:16:37.336Z,78.38
2024-02-24T11:19:13.099Z,79.40
2024-02-24T11:22:01.939Z,79.69
2024-02-24T11:24:35.869Z,78.91
2024-02-24T11:27:08.282Z,79.05
2024-02-24T11:29:38.005Z,77.49
2024-02-24T11:32:09.387Z,76.88
2024-02-24T11:34:45.054Z,77.21
2024-02-24T11:37:18.388Z,76.56
2024-02-24T11:39:48.921Z,75.14
2024-02-24T11:42:17.800Z,74.50
2024-02-24T11:44:48.427Z,75.01
2024-02-24T11:47:20.849Z,75.69
2024-02-24T11:49:51.107Z,76.07
2024-02-24T11:52:19.952Z,76.82
2024-02-24T11:54:49.136Z,75.57
2024-02-24T11:57:19.619Z,76.10
2024-02-24T11:59:51.996Z,74.74
2024-02-24T12:02:21.992Z,76.66
2024-02-24T12:04:52.813Z,76.58
2024-02-24T12:07:23.495Z,75.50
2024-02-24T12:09:54.120Z,75.72
2024-02-24T12:12:23.503Z,76.82
2024-02-24T12:14:52.293Z,77.02
2024-02-24T12:17:21.734Z,77.73
2024-02-24T12:19:52.184Z,77.61
2024-02-24T12:22:20.766Z,78.71
2024-02-24T12:24:49.271Z,78.42
2024-02-24T12:27:18.029Z,79.69
2024-02-24T12:29:47.006Z,80.61
2024-02-24T12:32:16.233Z,81.98
2024-02-24T12:34:45.457Z,82.30
2024-02-24T12:37:16.601Z,82.19
2024-02-24T12:39:46.490Z,82.93
2024-02-24T12:42:15.033Z,82.69
2024-02-24T12:44:43.638Z,83.57
2024-02-24T12:47:14.334Z,83.36
2024-02-24T12:49:45.675Z,84.26
2024-02-24T12:52:15.912Z,82.43
2024-02-24T12:54:44.561Z,81.55
2024-02-24T12:57:13.418Z,82.69
2024-02-24T12:59:42.200Z,81.47
2024-02-24T13:02:10.770Z,80.36
2024-02-24T13:04:39.323Z,77.96
2024-02-24T13:07:07.820Z,78.24
2024-02-24T13:09:37.745Z,78.40
2024-02-24T13:12:08.017Z,79.60
2024-02-24T13:14:37.161Z,78.66
2024-02-24T13:17:06.089Z,79.97
2024-02-24T13:19:35.339Z,80.32
2024-02-24T13:22:04.371Z,78.48
2024-02-24T13:24:32.866Z,79.70
2024-02-24T13:27:03.378Z,80.45
2024-02-24T13:29:32.049Z,78.32
2024-02-24T13:32:00.721Z,77.99
2024-02-24T13:34:29.175Z,77.78
2024-02-24T13:36:57.934Z,77.14
2024-02-24T13:39:26.833Z,77.78
2024-02-24T13:41:55.585Z,78.96
2024-02-24T13:44:25.937Z,77.56
2024-02-24T13:46:54.449Z,77.08
2024-02-24T13:49:25.675Z,77.04
2024-02-24T13:51:54.338Z,78.15
2024-02-24T13:54:24.127Z,76.49
2024-02-24T13:56:54.982Z,75.62
2024-02-24T13:59:23.657Z,76.02
2024-02-24T14:01:56.028Z,74.57
2024-02-24T14:04:24.479Z,75.34
2024-02-24T14:06:53.239Z,76.11
2024-02-24T14:09:21.858Z,73.72
2024-02-24T14:11:50.756Z,73.97
2024-02-24T14:14:19.534Z,71.80
2024-02-24T14:16:48.398Z,71.76
2024-02-24T14:19:21.816Z,72.45
2024-02-24T14:21:52.386Z,73.13
2024-02-24T14:24:21.026Z,73.51
2024-02-24T14:26:49.638Z,72.75
2024-02-24T14:29:18.375Z,73.42
2024-02-24T14:31:46.924Z,72.49
2024-02-24T14:34:15.574Z,72.56
2024-02-24T14:36:46.069Z,73.21
2024-02-24T14:39:14.837Z,72.37
2024-02-24T14:41:43.504Z,73.46
2024-02-24T14:44:22.398Z,73.12
2024-02-24T14:46:58.615Z,72.63
2024-02-24T14:49:27.452Z,71.35
2024-02-24T14:51:57.044Z,72.57
2024-02-24T14:54:26.154Z,72.58
2024-02-24T14:56:55.212Z,74.11
2024-02-24T14:59:25.156Z,73.50
2024-02-24T15:01:54.576Z,74.08
2024-02-24T15:04:25.350Z,74.16
2024-02-24T15:06:54.442Z,73.53
2024-02-24T15:09:23.088Z,73.18
2024-02-24T15:11:52.090Z,73.54
2024-02-24T15:14:21.012Z,73.50
2024-02-24T15:16:51.845Z,73.40
2024-02-24T15:19:21.699Z,72.55
2024-02-24T15:21:50.745Z,73.25
2024-02-24T15:24:20.807Z,72.20
2024-02-24T15:26:49.702Z,72.11
2024-02-24T15:29:18.617Z,72.29
2024-02-24T15:31:47.329Z,72.76
2024-02-24T15:34:18.106Z,72.44
2024-02-24T15:36:46.694Z,72.22
2024-02-24T15:39:15.214Z,73.40
2024-02-24T15:41:48.228Z,73.51
2024-02-24T15:44:16.890Z,73.94
2024-02-24T15:46:47.768Z,74.27
2024-02-24T15:49:17.821Z,73.04
2024-02-24T15:51:46.740Z,73.08
2024-02-24T15:54:15.847Z,73.75
2024-02-24T15:56:44.407Z,73.84
2024-02-24T15:59:13.163Z,73.59
2024-02-24T16:01:41.911Z,73.84
2024-02-24T16:04:10.621Z,74.09
2024-02-24T16:06:40.637Z,73.94
2024-02-24T16:09:10.686Z,74.22
2024-02-24T16:11:39.311Z,73.88
2024-02-24T16:14:08.383Z,74.29
2024-02-24T16:16:37.109Z,74.72
2024-02-24T16:19:06.811Z,74.34
2024-02-24T16:21:35.612Z,74.37
2024-02-24T16:24:06.576Z,74.29
2024-02-24T16:26:35.399Z,74.41
2024-02-24T16:29:04.063Z,74.42
2024-02-24T16:31:32.712Z,73.51
2024-02-24T16:34:02.617Z,73.17
2024-02-24T16:36:33.131Z,73.16
2024-02-24T16:39:05.739Z,73.67
2024-02-24T16:41:36.478Z,73.94
2024-02-24T16:44:08.581Z,74.04
2024-02-24T16:46:44.268Z,73.87
2024-02-24T16:49:14.117Z,73.28
2024-02-24T16:51:43.587Z,73.60
2024-02-24T16:54:13.121Z,73.51
2024-02-24T16:56:43.642Z,73.78
2024-02-24T16:59:12.851Z,74.15
2024-02-24T17:01:41.700Z,74.87
2024-02-24T17:04:10.962Z,74.80
2024-02-24T17:06:41.095Z,75.32
2024-02-24T17:09:11.644Z,75.74
2024-02-24T17:11:43.031Z,76.12
2024-02-24T17:14:11.770Z,76.41
2024-02-24T17:16:40.363Z,76.91
2024-02-24T17:19:09.360Z,77.66
2024-02-24T17:21:38.273Z,77.92
2024-02-24T17:24:07.497Z,78.04
2024-02-24T17:26:36.232Z,78.23
2024-02-24T17:29:06.334Z,78.36
2024-02-24T17:31:34.816Z,78.27
2024-02-24T17:34:03.902Z,78.23
2024-02-24T17:36:39.795Z,77.89
2024-02-24T17:39:08.773Z,77.79
2024-02-24T17:41:39.372Z,77.84
2024-02-24T17:44:09.426Z,77.48
2024-02-24T17:46:39.299Z,77.20
2024-02-24T17:49:08.294Z,77.11
2024-02-24T17:51:36.985Z,76.91
2024-02-24T17:54:05.865Z,76.85
2024-02-24T17:56:36.160Z,76.98
2024-02-24T17:59:04.747Z,76.74
2024-02-24T18:01:34.677Z,77.05
2024-02-24T18:04:04.000Z,76.50
2024-02-24T18:06:33.277Z,76.88
2024-02-24T18:09:02.313Z,76.71
2024-02-24T18:11:32.313Z,76.92
2024-02-24T18:14:01.097Z,76.71
2024-02-24T18:16:29.676Z,77.05
2024-02-24T18:19:00.102Z,77.23
2024-02-24T18:21:29.019Z,76.85
2024-02-24T18:23:57.809Z,77.04
2024-02-24T18:26:26.616Z,76.63
2024-02-24T18:29:00.851Z,76.95
2024-02-24T18:31:29.985Z,76.54
2024-02-24T18:34:00.956Z,76.42
2024-02-24T18:36:30.015Z,76.27
2024-02-24T18:38:58.774Z,76.20
2024-02-24T18:41:27.427Z,76.77
2024-02-24T18:43:55.823Z,77.13
2024-02-24T18:46:24.523Z,77.21
2024-02-24T18:48:53.449Z,77.26
2024-02-24T18:51:23.900Z,77.16
2024-02-24T18:53:52.941Z,77.59
2024-02-24T18:56:22.143Z,77.51
2024-02-24T18:58:50.930Z,77.02
2024-02-24T19:01:19.557Z,77.20
2024-02-24T19:03:48.403Z,77.40
2024-02-24T19:06:17.801Z,77.69
2024-02-24T19:08:48.488Z,77.59
2024-02-24T19:11:17.075Z,78.16
2024-02-24T19:13:45.807Z,77.78
2024-02-24T19:16:17.494Z,77.58
2024-02-24T19:18:46.231Z,77.88
2024-02-24T19:21:16.038Z,78.13
2024-02-24T19:23:44.591Z,77.86
2024-02-24T19:26:17.477Z,77.82
2024-02-24T19:28:46.062Z,77.71
2024-02-24T19:31:14.203Z,78.18
2024-02-24T19:33:43.222Z,77.70
2024-02-24T19:36:11.954Z,77.40
2024-02-24T19:38:41.207Z,77.45
2024-02-24T19:41:10.785Z,77.64
2024-02-24T19:43:40.702Z,78.09
2024-02-24T19:46:10.102Z,78.19
2024-02-24T19:48:38.689Z,78.42
2024-02-24T19:51:13.703Z,78.97
2024-02-24T19:53:42.569Z,78.40
2024-02-24T19:56:11.601Z,78.81
2024-02-24T19:58:47.866Z,78.57
2024-02-24T20:01:23.323Z,78.66
2024-02-24T20:03:52.005Z,78.03
2024-02-24T20:06:21.085Z,77.99
2024-02-24T20:08:51.806Z,78.02
2024-02-24T20:11:20.365Z,77.67
2024-02-24T20:13:50.544Z,78.13
2024-02-24T20:16:19.054Z,77.83
2024-02-24T20:18:48.006Z,77.61
2024-02-24T20:21:17.624Z,77.71
2024-02-24T20:23:47.450Z,77.32
2024-02-24T20:26:16.509Z,77.41
2024-02-24T20:28:45.710Z,77.52
2024-02-24T20:31:16.416Z,78.00
2024-02-24T20:33:53.479Z,77.32
2024-02-24T20:36:28.973Z,77.80
2024-02-24T20:39:00.118Z,77.87
2024-02-24T20:41:30.397Z,78.11
2024-02-24T20:44:01.066Z,78.36
2024-02-24T20:46:30.985Z,78.76
2024-02-24T20:48:59.699Z,78.34
2024-02-24T20:51:28.273Z,78.83
2024-02-24T20:53:56.759Z,79.25
2024-02-24T20:56:25.486Z,79.10
2024-02-24T20:58:54.045Z,79.22
2024-02-24T21:01:25.047Z,78.89
2024-02-24T21:03:57.391Z,78.91
2024-02-24T21:06:26.709Z,78.75
2024-02-24T21:08:55.660Z,79.00
2024-02-24T21:11:24.198Z,79.18
2024-02-24T21:13:53.184Z,79.51
2024-02-24T21:16:21.739Z,79.74
2024-02-24T21:18:52.497Z,79.59
2024-02-24T21:21:22.594Z,80.40
2024-02-24T21:23:55.231Z,80.69
2024-02-24T21:26:24.699Z,80.63
2024-02-24T21:28:53.947Z,80.62
2024-02-24T21:31:23.316Z,80.54
2024-02-24T21:33:52.306Z,81.12
2024-02-24T21:36:22.553Z,81.15
2024-02-24T21:38:51.727Z,80.82
2024-02-24T21:41:21.721Z,80.84
2024-02-24T21:43:50.931Z,80.72
2024-02-24T21:46:19.663Z,81.13
2024-02-24T21:48:49.496Z,81.06
2024-02-24T21:51:18.253Z,81.30
2024-02-24T21:53:48.214Z,81.22
2024-02-24T21:56:16.831Z,80.58
2024-02-24T21:58:45.355Z,80.43
2024-02-24T22:01:18.158Z,80.49
2024-02-24T22:03:47.021Z,80.00
2024-02-24T22:06:15.907Z,80.69
2024-02-24T22:08:44.711Z,81.13
2024-02-24T22:11:14.860Z,81.34
2024-02-24T22:13:45.418Z,81.32
2024-02-24T22:16:15.698Z,81.35
2024-02-24T22:18:45.515Z,81.51
2024-02-24T22:21:16.268Z,81.74
2024-02-24T22:23:44.862Z,81.98
2024-02-24T22:26:15.223Z,81.91
2024-02-24T22:28:44.160Z,81.91
2024-02-24T22:31:14.269Z,81.99
2024-02-24T22:33:43.096Z,82.26
2024-02-24T22:36:12.829Z,82.68
2024-02-24T22:38:41.603Z,82.72
2024-02-24T22:41:10.543Z,83.27
2024-02-24T22:43:40.893Z,83.00
2024-02-24T22:46:10.607Z,83.08
2024-02-24T22:48:40.927Z,82.55
2024-02-24T22:51:09.823Z,82.80
2024-02-24T22:53:38.511Z,82.99
2024-02-24T22:56:09.460Z,82.84
2024-02-24T22:58:39.641Z,82.74
2024-02-24T23:01:08.345Z,82.96
2024-02-24T23:03:36.997Z,82.73
2024-02-24T23:06:06.462Z,82.72
2024-02-24T23:08:35.577Z,82.66
2024-02-24T23:11:05.605Z,82.31
2024-02-24T23:13:34.283Z,82.65
2024-02-24T23:16:06.468Z,82.04
2024-02-24T23:18:35.386Z,82.57
2024-02-24T23:21:03.945Z,82.50
2024-02-24T23:23:32.927Z,82.22
2024-02-24T23:26:01.946Z,82.45
2024-02-24T23:28:30.445Z,82.11
2024-02-24T23:30:59.693Z,81.79
2024-02-24T23:33:29.904Z,81.94
2024-02-24T23:35:58.569Z,81.94
2024-02-24T23:38:27.107Z,81.23
2024-02-24T23:40:55.859Z,82.13
2024-02-24T23:43:24.630Z,81.53
2024-02-24T23:45:53.225Z,81.56
2024-02-24T23:48:21.819Z,81.03
2024-02-24T23:50:51.890Z,80.81
2024-02-24T23:53:20.723Z,80.32
2024-02-24T23:55:52.563Z,80.21
2024-02-24T23:58:21.444Z,79.68
